Time;durP1;ratioP1;P1;durP2;ratioP2;P2;SDS_P1;SDS_P2;PMS_P1;PMS_P2;Temp;Humidity;BMP_temperature;BMP_pressure;BME280_temperature;BME280_humidity;BME280_pressure;Samples;Min_cycle;Max_cycle;Signal;HPM_P1;HPM_P2
2023/02/18 00:01:42;;;;;;;;;;;;;;;19.93;48.92;101030.84;4939147;28;2354;-61
2023/02/18 00:04:09;;;;;;;;;;;;;;;19.92;48.95;101035.88;4940527;28;2140;-62
2023/02/18 00:06:35;;;;;;;;;;;;;;;19.92;49.01;101033.00;4935223;28;2859;-62
2023/02/18 00:09:03;;;;;;;;;;;;;;;19.91;49.06;101037.25;4937732;28;2419;-62
2023/02/18 00:11:30;;;;;;;;;;;;;;;19.90;49.07;101038.63;4933528;28;2773;-62
2023/02/18 00:13:57;;;;;;;;;;;;;;;19.90;49.12;101038.63;4937776;28;2879;-61
2023/02/18 00:16:24;;;;;;;;;;;;;;;19.89;48.88;101028.53;4934565;28;2775;-62
2023/02/18 00:18:53;;;;;;;;;;;;;;;19.88;48.81;101029.91;4938418;28;2395;-62
2023/02/18 00:21:20;;;;;;;;;;;;;;;19.87;48.85;101045.66;4937161;28;2724;-61
2023/02/18 00:23:46;;;;;;;;;;;;;;;19.87;48.72;101040.66;4937664;28;2632;-62
2023/02/18 00:26:13;;;;;;;;;;;;;;;19.87;48.78;101037.03;4936358;28;2836;-62
2023/02/18 00:28:39;;;;;;;;;;;;;;;19.87;48.72;101045.66;4938588;28;2659;-62
2023/02/18 00:31:10;;;;;;;;;;;;;;;19.86;48.83;101039.19;4922906;28;2804;-62
2023/02/18 00:33:36;;;;;;;;;;;;;;;19.85;48.69;101049.16;4934726;28;2254;-62
2023/02/18 00:36:03;;;;;;;;;;;;;;;19.85;48.61;101051.31;4934132;28;2808;-62
2023/02/18 00:38:29;;;;;;;;;;;;;;;19.85;48.76;101066.41;4934383;28;2755;-62
2023/02/18 00:40:56;;;;;;;;;;;;;;;19.83;48.74;101054.06;4930473;28;1918;-62
2023/02/18 00:43:22;;;;;;;;;;;;;;;19.83;48.79;101069.19;4921757;28;2949;-62
2023/02/18 00:45:48;;;;;;;;;;;;;;;19.82;48.48;101061.22;4933926;28;2888;-62
2023/02/18 00:48:15;;;;;;;;;;;;;;;19.83;48.68;101074.19;4937086;28;2808;-62
2023/02/18 00:50:41;;;;;;;;;;;;;;;19.82;48.61;101064.81;4937635;29;2963;-62
2023/02/18 00:53:07;;;;;;;;;;;;;;;19.82;48.52;101069.84;4938330;28;2830;-62
2023/02/18 00:55:38;;;;;;;;;;;;;;;19.80;48.67;101076.22;4939769;28;3157;-62
2023/02/18 00:58:04;;;;;;;;;;;;;;;19.81;48.50;101076.94;4920685;29;1570;-62
2023/02/18 01:00:30;;;;;;;;;;;;;;;19.79;48.51;101077.63;4929355;28;3014;-62
2023/02/18 01:02:57;;;;;;;;;;;;;;;19.79;48.33;101073.97;4933139;28;2858;-62
2023/02/18 01:05:24;;;;;;;;;;;;;;;19.79;48.55;101071.09;4927578;29;2706;-62
2023/02/18 01:07:50;;;;;;;;;;;;;;;19.78;48.54;101072.50;4917562;29;2960;-62
2023/02/18 01:10:17;;;;;;;;;;;;;;;19.78;48.34;101061.00;4937293;29;2059;-62
2023/02/18 01:12:44;;;;;;;;;;;;;;;19.77;48.38;101077.50;4938343;28;1595;-61
2023/02/18 01:15:11;;;;;;;;;;;;;;;19.76;48.24;101073.13;4938913;28;2795;-62
2023/02/18 01:17:39;;;;;;;;;;;;;;;19.76;48.51;101075.25;4934923;28;1649;-62
2023/02/18 01:20:06;;;;;;;;;;;;;;;19.76;48.32;101063.78;4938628;29;2755;-62
2023/02/18 01:22:33;;;;;;;;;;;;;;;19.74;48.24;101072.28;4929620;29;2930;-62
2023/02/18 01:24:59;;;;;;;;;;;;;;;19.74;48.40;101066.53;4943029;28;2651;-62
2023/02/18 01:27:26;;;;;;;;;;;;;;;19.75;48.36;101073.78;4928043;29;2817;-62
2023/02/18 01:29:52;;;;;;;;;;;;;;;19.74;48.44;101066.53;4914053;29;2868;-62
2023/02/18 01:32:21;;;;;;;;;;;;;;;19.74;48.38;101057.91;4924988;29;1674;-61
2023/02/18 01:34:48;;;;;;;;;;;;;;;19.73;48.33;101053.56;4934134;28;2742;-62
2023/02/18 01:37:15;;;;;;;;;;;;;;;19.72;48.37;101052.78;4916141;29;1617;-62
2023/02/18 01:39:41;;;;;;;;;;;;;;;19.72;48.24;101064.28;4918634;29;3010;-62
2023/02/18 01:42:15;;;;;;;;;;;;;;;19.71;48.25;101062.06;4918481;29;2268;-62
2023/02/18 01:44:42;;;;;;;;;;;;;;;19.72;48.24;101063.56;4918458;29;2975;-62
2023/02/18 01:47:10;;;;;;;;;;;;;;;19.72;48.25;101057.81;4917769;29;1847;-62
2023/02/18 01:49:36;;;;;;;;;;;;;;;19.72;48.18;101060.69;4915830;29;2865;-62
2023/02/18 01:52:11;;;;;;;;;;;;;;;19.73;48.21;101059.31;4919756;29;2715;-62
2023/02/18 01:54:42;;;;;;;;;;;;;;;19.74;48.10;101063.66;4932320;28;2942;-61
2023/02/18 01:57:09;;;;;;;;;;;;;;;19.76;48.28;101063.78;4932072;28;1624;-62
2023/02/18 01:59:37;;;;;;;;;;;;;;;19.77;48.38;101065.25;4930479;29;2761;-62
2023/02/18 02:02:03;;;;;;;;;;;;;;;19.78;48.30;101066.75;4933601;29;2988;-62
2023/02/18 02:04:29;;;;;;;;;;;;;;;19.78;48.50;101056.00;4930864;28;2995;-62
2023/02/18 02:06:56;;;;;;;;;;;;;;;19.80;48.45;101058.25;4928562;28;2957;-62
2023/02/18 02:09:23;;;;;;;;;;;;;;;19.78;48.41;101061.75;4915870;29;3001;-61
2023/02/18 02:11:52;;;;;;;;;;;;;;;19.78;48.37;101050.25;4916945;29;1640;-61
2023/02/18 02:14:21;;;;;;;;;;;;;;;19.78;48.57;101067.47;4919272;29;1696;-62
2023/02/18 02:16:54;;;;;;;;;;;;;;;19.78;48.45;101067.47;4931975;28;2472;-62
2023/02/18 02:19:31;;;;;;;;;;;;;;;19.78;48.59;101066.75;4915243;29;2657;-62
2023/02/18 02:22:15;;;;;;;;;;;;;;;19.77;48.51;101065.25;4930242;29;1714;-62
2023/02/18 02:24:57;;;;;;;;;;;;;;;19.77;48.53;101065.25;4929247;29;1825;-62
2023/02/18 02:27:28;;;;;;;;;;;;;;;19.75;48.55;101065.16;4911009;29;2835;-62
2023/02/18 02:30:00;;;;;;;;;;;;;;;19.75;48.54;101068.03;4921927;29;2799;-62
2023/02/18 02:32:45;;;;;;;;;;;;;;;19.74;48.61;101060.78;4908704;29;1590;-62
2023/02/18 02:35:17;;;;;;;;;;;;;;;19.74;48.70;101072.28;4918611;29;2781;-62
2023/02/18 02:37:46;;;;;;;;;;;;;;;19.72;48.49;101070.03;4918101;29;2848;-62
2023/02/18 02:40:32;;;;;;;;;;;;;;;19.73;48.48;101070.78;4927516;28;2897;-62
2023/02/18 02:43:18;;;;;;;;;;;;;;;19.72;48.54;101075.03;4916943;29;1847;-62
2023/02/18 02:45:49;;;;;;;;;;;;;;;19.71;48.41;101073.56;4917923;29;1658;-62
2023/02/18 02:48:25;;;;;;;;;;;;;;;19.72;48.33;101069.28;4916293;29;2695;-62
2023/02/18 02:50:58;;;;;;;;;;;;;;;19.70;48.34;101072.81;4919285;29;2396;-62
2023/02/18 02:53:26;;;;;;;;;;;;;;;19.70;48.29;101077.81;4924240;29;2917;-62
2023/02/18 02:55:54;;;;;;;;;;;;;;;19.69;48.13;101076.31;4929777;28;1689;-62
2023/02/18 02:58:22;;;;;;;;;;;;;;;19.67;48.23;101063.31;4923174;29;2854;-62
2023/02/18 03:00:52;;;;;;;;;;;;;;;19.68;48.13;101052.56;4921123;29;2836;-62
2023/02/18 03:03:18;;;;;;;;;;;;;;;19.69;48.06;101070.59;4922661;29;2838;-62
2023/02/18 03:09:01;;;;;;;;;;;;;;;19.66;48.25;101056.06;4926813;29;2975;-62
2023/02/18 03:11:28;;;;;;;;;;;;;;;19.66;48.27;101056.06;4919768;29;2778;-62
2023/02/18 03:14:00;;;;;;;;;;;;;;;19.66;48.19;101055.34;4931771;28;1685;-62
2023/02/18 03:16:41;;;;;;;;;;;;;;;19.65;48.17;101054.59;4925031;29;1654;-62
2023/02/18 03:19:19;;;;;;;;;;;;;;;19.63;48.00;101060.25;4937001;28;2892;-62
2023/02/18 03:21:47;;;;;;;;;;;;;;;19.65;48.06;101059.56;4919936;29;2445;-62
2023/02/18 03:24:15;;;;;;;;;;;;;;;19.63;48.16;101063.09;4911508;29;2800;-62
2023/02/18 03:26:44;;;;;;;;;;;;;;;19.63;48.07;101068.09;4933500;28;2118;-61
2023/02/18 03:29:10;;;;;;;;;;;;;;;19.64;47.95;101063.84;4935608;28;2746;-62
2023/02/18 03:31:37;;;;;;;;;;;;;;;19.63;47.96;101065.97;4921204;29;3131;-62
2023/02/18 03:34:08;;;;;;;;;;;;;;;19.62;48.16;101058.72;4919235;29;2678;-61
2023/02/18 03:36:35;;;;;;;;;;;;;;;19.62;47.98;101064.47;4921471;29;2964;-62
2023/02/18 03:39:03;;;;;;;;;;;;;;;19.62;48.04;101073.09;4936405;28;2866;-62
2023/02/18 03:41:29;;;;;;;;;;;;;;;19.62;48.10;101066.63;4920672;29;2686;-62
2023/02/18 03:43:59;;;;;;;;;;;;;;;19.63;48.00;101074.59;4919305;29;2877;-62
2023/02/18 03:46:27;;;;;;;;;;;;;;;19.66;48.11;101076.19;4928121;29;1598;-62
2023/02/18 03:48:53;;;;;;;;;;;;;;;19.70;48.18;101080.69;4925175;29;2438;-62
2023/02/18 03:51:19;;;;;;;;;;;;;;;19.72;48.10;101075.03;4922391;29;2890;-62
2023/02/18 03:53:46;;;;;;;;;;;;;;;19.74;48.32;101078.03;4923031;29;1599;-62
2023/02/18 03:56:12;;;;;;;;;;;;;;;19.75;48.30;101085.28;4936377;28;1769;-62
2023/02/18 03:58:38;;;;;;;;;;;;;;;19.75;48.39;101079.53;4920926;29;2761;-62
2023/02/18 04:01:05;;;;;;;;;;;;;;;19.75;48.36;101080.28;4918167;29;2763;-62
2023/02/18 04:03:31;;;;;;;;;;;;;;;19.76;48.38;101072.38;4921248;29;1623;-62
2023/02/18 04:05:57;;;;;;;;;;;;;;;19.76;48.44;101078.13;4918515;29;2770;-62
2023/02/18 04:08:24;;;;;;;;;;;;;;;19.75;48.39;101076.66;4921135;29;1690;-62
2023/02/18 04:10:50;;;;;;;;;;;;;;;19.75;48.54;101079.53;4917693;29;2779;-61
2023/02/18 04:13:17;;;;;;;;;;;;;;;19.77;48.35;101082.47;4921984;29;2169;-62
2023/02/18 04:16:12;;;;;;;;;;;;;;;19.77;48.53;101071.00;4917171;29;2902;-62
2023/02/18 04:18:39;;;;;;;;;;;;;;;19.77;48.60;101071.75;4904955;29;2838;-62
2023/02/18 04:21:05;;;;;;;;;;;;;;;19.78;48.75;101070.34;4915908;29;2868;-62
2023/02/18 04:23:32;;;;;;;;;;;;;;;19.80;48.67;101075.47;4917178;29;1634;-61
2023/02/18 04:25:58;;;;;;;;;;;;;;;19.80;48.66;101070.47;4915342;29;2808;-62
2023/02/18 04:28:24;;;;;;;;;;;;;;;19.80;48.63;101063.97;4915490;29;1813;-61
2023/02/18 04:30:51;;;;;;;;;;;;;;;19.78;48.85;101067.47;4935765;28;2564;-62
2023/02/18 04:33:17;;;;;;;;;;;;;;;19.79;48.70;101062.47;4934868;29;1864;-62
2023/02/18 04:35:43;;;;;;;;;;;;;;;19.79;48.70;101073.97;4938979;29;2822;-62
2023/02/18 04:38:10;;;;;;;;;;;;;;;19.79;48.62;101068.22;4936583;29;1632;-62
2023/02/18 04:40:36;;;;;;;;;;;;;;;19.79;48.69;101068.22;4937119;28;2585;-62
2023/02/18 04:43:02;;;;;;;;;;;;;;;19.80;48.59;101069.72;4933579;28;3116;-62
2023/02/18 04:45:29;;;;;;;;;;;;;;;19.80;48.58;101070.47;4941791;29;1771;-62
2023/02/18 04:47:55;;;;;;;;;;;;;;;19.81;48.66;101065.47;4932549;28;3146;-62
2023/02/18 04:50:22;;;;;;;;;;;;;;;19.82;48.65;101072.72;4937038;28;2136;-62
2023/02/18 04:52:48;;;;;;;;;;;;;;;19.81;48.63;101071.97;4932575;28;2831;-62
2023/02/18 04:55:14;;;;;;;;;;;;;;;19.84;48.72;101069.94;4934499;28;1720;-62
2023/02/18 04:57:41;;;;;;;;;;;;;;;19.83;48.67;101079.94;4936408;28;2909;-62
2023/02/18 05:00:08;;;;;;;;;;;;;;;19.84;48.89;101076.44;4938736;28;1969;-62
2023/02/18 05:02:51;;;;;;;;;;;;;;;19.83;48.99;101072.06;4928369;28;2936;-62
2023/02/18 05:05:17;;;;;;;;;;;;;;;19.83;48.86;101072.06;4933922;29;2812;-62
2023/02/18 05:07:44;;;;;;;;;;;;;;;19.83;48.81;101071.31;4940948;28;2924;-62
2023/02/18 05:10:11;;;;;;;;;;;;;;;19.83;48.69;101074.19;4940107;29;1948;-62
2023/02/18 05:12:37;;;;;;;;;;;;;;;19.83;48.70;101069.19;4933625;28;2903;-62
2023/02/18 05:15:03;;;;;;;;;;;;;;;19.83;48.72;101074.19;4934740;28;2888;-62
2023/02/18 05:17:30;;;;;;;;;;;;;;;19.83;48.74;101074.19;4935771;28;2817;-62
2023/02/18 05:19:56;;;;;;;;;;;;;;;19.83;48.68;101063.44;4938896;29;2824;-62
2023/02/18 05:22:22;;;;;;;;;;;;;;;19.84;48.69;101067.06;4938083;28;2832;-62
2023/02/18 05:24:49;;;;;;;;;;;;;;;19.84;48.67;101069.94;4940037;29;2366;-63
2023/02/18 05:27:15;;;;;;;;;;;;;;;19.86;48.73;101067.91;4944769;28;2522;-62
2023/02/18 05:29:41;;;;;;;;;;;;;;;19.87;48.67;101074.41;4939214;28;2755;-62
2023/02/18 05:32:08;;;;;;;;;;;;;;;19.86;48.86;101070.06;4937624;28;1774;-62
2023/02/18 05:34:34;;;;;;;;;;;;;;;19.86;48.75;101075.81;4939802;29;3033;-62
2023/02/18 05:37:01;;;;;;;;;;;;;;;19.85;48.69;101065.69;4934919;28;2795;-62
2023/02/18 05:39:27;;;;;;;;;;;;;;;19.86;48.71;101070.06;4939071;28;1595;-62
2023/02/18 05:41:53;;;;;;;;;;;;;;;19.85;48.56;101060.66;4939637;28;2568;-62
2023/02/18 05:44:29;;;;;;;;;;;;;;;19.86;48.66;101067.19;4942474;29;2697;-62
2023/02/18 05:46:56;;;;;;;;;;;;;;;19.84;48.60;101061.31;4935735;29;2587;-62
2023/02/18 05:49:23;;;;;;;;;;;;;;;19.85;48.71;101060.66;4936144;29;2880;-62
2023/02/18 05:51:50;;;;;;;;;;;;;;;19.85;48.69;101059.94;4936275;28;2798;-62
2023/02/18 05:54:16;;;;;;;;;;;;;;;19.87;48.73;101060.78;4939091;29;2757;-62
2023/02/18 05:56:42;;;;;;;;;;;;;;;19.88;48.68;101065.16;4936462;28;2898;-62
2023/02/18 05:59:09;;;;;;;;;;;;;;;19.89;48.81;101063.03;4940302;29;1687;-62
2023/02/18 06:01:35;;;;;;;;;;;;;;;19.89;48.88;101063.03;4936955;28;1996;-62
2023/02/18 06:04:01;;;;;;;;;;;;;;;19.90;48.71;101058.75;4934798;29;2802;-62
2023/02/18 06:06:28;;;;;;;;;;;;;;;19.89;48.86;101051.53;4935815;28;2495;-62
2023/02/18 06:08:54;;;;;;;;;;;;;;;19.89;48.74;101060.16;4937545;29;1866;-62
2023/02/18 06:11:20;;;;;;;;;;;;;;;19.89;48.78;101060.16;4936182;28;2948;-62
2023/02/18 06:13:47;;;;;;;;;;;;;;;19.89;48.74;101051.53;4937083;28;3018;-62
2023/02/18 06:16:13;;;;;;;;;;;;;;;19.88;48.71;101053.66;4935498;28;2799;-62
2023/02/18 06:18:39;;;;;;;;;;;;;;;19.89;48.81;101048.66;4937664;29;2749;-62
2023/02/18 06:21:06;;;;;;;;;;;;;;;19.89;48.77;101054.41;4934984;28;2770;-62
2023/02/18 06:23:32;;;;;;;;;;;;;;;19.89;48.82;101054.41;4938283;28;1563;-62
2023/02/18 06:25:58;;;;;;;;;;;;;;;19.91;48.85;101056.63;4934153;28;3018;-62
2023/02/18 06:28:25;;;;;;;;;;;;;;;19.90;48.65;101044.38;4932666;28;2647;-62
2023/02/18 06:30:51;;;;;;;;;;;;;;;19.90;48.87;101049.38;4929706;28;2747;-62
2023/02/18 06:33:17;;;;;;;;;;;;;;;19.91;48.92;101057.38;4932032;29;2778;-62
2023/02/18 06:35:54;;;;;;;;;;;;;;;19.91;48.98;101060.25;4932208;28;2899;-62
2023/02/18 06:38:20;;;;;;;;;;;;;;;19.92;48.84;101061.72;4934645;29;2752;-62
2023/02/18 06:40:47;;;;;;;;;;;;;;;19.91;48.98;101063.13;4937235;29;3007;-62
2023/02/18 06:43:13;;;;;;;;;;;;;;;19.92;49.02;101061.00;4933959;29;3506;-62
2023/02/18 06:45:39;;;;;;;;;;;;;;;19.91;48.86;101053.75;4934840;29;1815;-62
2023/02/18 06:48:06;;;;;;;;;;;;;;;19.90;49.02;101047.25;4935677;28;2769;-62
2023/02/18 06:50:32;;;;;;;;;;;;;;;19.90;48.92;101047.25;4935690;29;2947;-62
2023/02/18 06:52:58;;;;;;;;;;;;;;;19.91;49.03;101045.88;4938433;29;2778;-62
2023/02/18 06:55:25;;;;;;;;;;;;;;;19.91;48.82;101051.63;4942316;28;2447;-62
2023/02/18 06:57:51;;;;;;;;;;;;;;;19.91;48.74;101051.63;4944464;28;1893;-62
2023/02/18 07:00:17;;;;;;;;;;;;;;;19.91;48.73;101048.75;4938647;28;2847;-62
2023/02/18 07:02:44;;;;;;;;;;;;;;;19.92;48.68;101053.09;4942792;28;2671;-61
2023/02/18 07:05:10;;;;;;;;;;;;;;;19.93;48.75;101050.97;4941477;28;2762;-62
2023/02/18 07:07:36;;;;;;;;;;;;;;;19.94;48.73;101046.72;4942853;29;2828;-62
2023/02/18 07:10:03;;;;;;;;;;;;;;;19.93;48.75;101042.34;4944331;28;2826;-62
2023/02/18 07:12:32;;;;;;;;;;;;;;;19.98;48.78;101039.06;4944009;29;3048;-59
2023/02/18 07:14:58;;;;;;;;;;;;;;;19.96;48.47;101047.56;4943245;29;2738;-60
2023/02/18 07:17:25;;;;;;;;;;;;;;;19.73;48.59;101048.56;4943342;29;2988;-59
2023/02/18 07:19:51;;;;;;;;;;;;;;;19.81;47.90;101048.22;4941232;29;2867;-59
2023/02/18 07:22:17;;;;;;;;;;;;;;;19.88;48.21;101050.00;4942815;28;2818;-60
2023/02/18 07:25:09;;;;;;;;;;;;;;;19.88;48.30;101042.16;4933248;29;3398;-61
2023/02/18 07:27:35;;;;;;;;;;;;;;;19.93;48.56;101043.13;4941280;28;2938;-63
2023/02/18 07:30:02;;;;;;;;;;;;;;;19.98;48.75;101033.31;4943600;28;3041;-59
2023/02/18 07:35:54;;;;;;;;;;;;;;;19.95;49.48;101037.47;4935961;28;3052;-59
2023/02/18 07:38:21;;;;;;;;;;;;;;;19.94;49.50;101027.34;4942154;29;3133;-59
2023/02/18 07:40:47;;;;;;;;;;;;;;;19.93;49.70;101014.38;4941963;29;2949;-58
2023/02/18 07:43:14;;;;;;;;;;;;;;;19.91;49.45;101028.63;4938225;28;3057;-59
2023/02/18 07:45:40;;;;;;;;;;;;;;;19.88;48.98;101018.41;4942486;29;2903;-59
2023/02/18 07:48:06;;;;;;;;;;;;;;;19.88;48.88;101022.03;4940449;29;3009;-59
2023/02/18 07:50:35;;;;;;;;;;;;;;;19.89;48.87;101002.66;4939673;28;3057;-59
2023/02/18 07:53:02;;;;;;;;;;;;;;;19.87;49.31;101011.19;4943178;28;2970;-57
2023/02/18 07:55:47;;;;;;;;;;;;;;;20.00;49.32;101010.41;4938044;28;3197;-61
2023/02/18 07:58:17;;;;;;;;;;;;;;;19.91;48.67;101008.50;4942299;28;2904;-59
2023/02/18 08:00:44;;;;;;;;;;;;;;;19.74;48.02;101004.06;4941930;28;2774;-59
2023/02/18 08:03:10;;;;;;;;;;;;;;;19.51;47.51;100987.78;4940738;28;2901;-59
2023/02/18 08:05:36;;;;;;;;;;;;;;;19.61;47.04;100996.94;4942686;29;3319;-60
2023/02/18 08:08:03;;;;;;;;;;;;;;;19.75;46.91;100985.44;4939553;29;1695;-59
2023/02/18 08:10:29;;;;;;;;;;;;;;;19.82;46.93;100990.13;4938785;28;3048;-59
2023/02/18 08:12:55;;;;;;;;;;;;;;;19.89;46.97;100979.66;4940042;28;2620;-59
2023/02/18 08:15:22;;;;;;;;;;;;;;;19.94;47.28;100969.13;4935475;28;3099;-59
2023/02/18 08:17:48;;;;;;;;;;;;;;;19.97;47.51;100973.56;4934645;28;3084;-59
2023/02/18 08:20:14;;;;;;;;;;;;;;;19.97;47.41;100968.56;4936342;28;2954;-60
2023/02/18 08:22:41;;;;;;;;;;;;;;;19.99;47.71;100953.56;4937237;28;3479;-58
2023/02/18 08:25:07;;;;;;;;;;;;;;;20.02;47.70;100958.00;4937505;29;2494;-59
2023/02/18 08:27:43;;;;;;;;;;;;;;;20.04;47.61;100949.50;4939942;28;2976;-59
2023/02/18 08:30:09;;;;;;;;;;;;;;;20.05;47.92;100939.50;4935382;28;3122;-59
2023/02/18 08:32:36;;;;;;;;;;;;;;;20.03;47.96;100937.25;4935279;28;3188;-59
2023/02/18 08:35:02;;;;;;;;;;;;;;;20.04;48.10;100941.63;4937977;29;2980;-59
2023/02/18 08:37:29;;;;;;;;;;;;;;;20.03;48.13;100931.50;4934721;29;2527;-59
2023/02/18 08:40:15;;;;;;;;;;;;;;;20.04;48.16;100918.63;4931158;28;3023;-60
2023/02/18 08:42:41;;;;;;;;;;;;;;;20.07;48.03;100920.22;4928810;28;3228;-64
2023/02/18 08:45:08;;;;;;;;;;;;;;;20.14;48.23;100911.88;4930198;28;3008;-59
2023/02/18 08:47:34;;;;;;;;;;;;;;;20.19;48.39;100919.31;4931552;28;3035;-60
2023/02/18 08:50:24;;;;;;;;;;;;;;;20.12;48.72;100915.41;4930806;28;2969;-60
2023/02/18 08:52:51;;;;;;;;;;;;;;;20.03;48.87;100910.66;4931783;28;2942;-58
2023/02/18 08:55:19;;;;;;;;;;;;;;;19.97;48.65;100905.34;4934134;28;2878;-60
2023/02/18 08:57:46;;;;;;;;;;;;;;;20.01;48.66;100905.53;4926165;28;3211;-62
2023/02/18 09:00:13;;;;;;;;;;;;;;;19.79;48.80;100901.56;4921685;28;2966;-61
2023/02/18 09:02:40;;;;;;;;;;;;;;;19.87;48.38;100899.09;4932010;28;2961;-61
2023/02/18 09:05:08;;;;;;;;;;;;;;;19.99;48.60;100891.06;4934392;28;2938;-62
2023/02/18 09:07:35;;;;;;;;;;;;;;;20.03;48.53;100879.78;4932200;29;3097;-62
2023/02/18 09:10:01;;;;;;;;;;;;;;;20.04;48.68;100878.41;4931611;28;2981;-62
2023/02/18 09:12:27;;;;;;;;;;;;;;;20.07;49.15;100879.97;4937579;28;3585;-62
2023/02/18 09:14:54;;;;;;;;;;;;;;;20.08;49.05;100869.94;4933261;29;2882;-62
2023/02/18 09:17:20;;;;;;;;;;;;;;;20.11;48.97;100872.91;4933836;29;2793;-62
2023/02/18 09:19:46;;;;;;;;;;;;;;;20.11;48.92;100870.03;4933568;28;3263;-61
2023/02/18 09:22:13;;;;;;;;;;;;;;;20.11;49.24;100867.16;4932862;29;3324;-62
2023/02/18 09:24:39;;;;;;;;;;;;;;;20.10;49.31;100854.94;4931808;28;3442;-64
2023/02/18 09:27:06;;;;;;;;;;;;;;;20.11;49.26;100861.41;4935907;28;2899;-61
2023/02/18 09:29:36;;;;;;;;;;;;;;;20.12;49.39;100857.16;4930620;28;3057;-61
2023/02/18 09:32:03;;;;;;;;;;;;;;;20.12;49.49;100839.91;4936399;29;2974;-61
2023/02/18 09:34:29;;;;;;;;;;;;;;;20.12;49.41;100831.28;4935042;29;2541;-60
2023/02/18 09:36:56;;;;;;;;;;;;;;;20.11;49.32;100844.16;4934123;29;2986;-60
2023/02/18 09:39:22;;;;;;;;;;;;;;;20.09;49.34;100831.19;4932858;29;2914;-60
2023/02/18 09:41:49;;;;;;;;;;;;;;;20.08;49.19;100815.31;4933213;29;3026;-61
2023/02/18 09:44:17;;;;;;;;;;;;;;;20.08;49.32;100811.72;4936675;28;2942;-60
2023/02/18 09:46:51;;;;;;;;;;;;;;;20.07;49.30;100801.63;4934583;29;3175;-60
2023/02/18 09:49:18;;;;;;;;;;;;;;;20.07;49.28;100793.72;4915914;29;3199;-60
2023/02/18 09:51:45;;;;;;;;;;;;;;;20.07;49.32;100787.25;4933143;28;2938;-60
2023/02/18 09:54:11;;;;;;;;;;;;;;;20.05;49.37;100785.00;4931636;29;3422;-60
2023/02/18 09:56:37;;;;;;;;;;;;;;;20.04;49.49;100783.53;4934981;29;2891;-60
2023/02/18 09:59:08;;;;;;;;;;;;;;;20.05;49.52;100779.25;4931274;29;3344;-60
2023/02/18 10:01:38;;;;;;;;;;;;;;;20.05;49.45;100767.03;4930439;28;2890;-60
2023/02/18 10:04:22;;;;;;;;;;;;;;;20.08;49.42;100771.47;4913864;29;3184;-61
2023/02/18 10:06:52;;;;;;;;;;;;;;;20.08;49.35;100769.34;4932556;28;3014;-61
2023/02/18 10:09:20;;;;;;;;;;;;;;;20.09;49.38;100765.09;4934567;28;2266;-61
2023/02/18 10:11:54;;;;;;;;;;;;;;;20.12;49.33;100770.94;4933276;29;2938;-61
2023/02/18 10:14:20;;;;;;;;;;;;;;;20.12;49.70;100763.03;4919909;29;2975;-61
2023/02/18 10:16:47;;;;;;;;;;;;;;;20.11;49.64;100747.16;4930082;28;2939;-62
2023/02/18 10:19:24;;;;;;;;;;;;;;;20.11;49.57;100744.28;4916877;29;3387;-62
2023/02/18 10:21:51;;;;;;;;;;;;;;;20.12;49.78;100740.03;4930225;28;3637;-62
2023/02/18 10:24:33;;;;;;;;;;;;;;;20.13;49.80;100729.28;4931394;28;3031;-61
2023/02/18 10:27:00;;;;;;;;;;;;;;;20.13;49.55;100712.03;4934595;28;3123;-61
2023/02/18 10:29:26;;;;;;;;;;;;;;;20.12;50.04;100705.53;4930702;28;3107;-60
2023/02/18 10:31:56;;;;;;;;;;;;;;;20.14;49.89;100704.91;4930869;29;3025;-60
2023/02/18 10:34:29;;;;;;;;;;;;;;;20.13;49.76;100691.91;4930745;28;3036;-60
2023/02/18 10:37:14;;;;;;;;;;;;;;;20.13;49.72;100689.03;4928637;28;3034;-60
2023/02/18 10:39:43;;;;;;;;;;;;;;;20.13;49.82;100680.41;4931393;29;3013;-60
2023/02/18 10:42:27;;;;;;;;;;;;;;;20.13;49.76;100668.91;4932574;29;2704;-60
2023/02/18 10:45:05;;;;;;;;;;;;;;;20.14;49.91;100661.78;4931347;29;2918;-60
2023/02/18 10:47:50;;;;;;;;;;;;;;;20.15;49.85;100648.88;4935693;28;2720;-60
2023/02/18 10:50:24;;;;;;;;;;;;;;;20.15;49.98;100631.63;4932067;29;2994;-60
2023/02/18 10:52:51;;;;;;;;;;;;;;;20.16;49.93;100630.22;4932580;28;2736;-60
2023/02/18 10:55:17;;;;;;;;;;;;;;;20.15;50.00;100620.13;4935476;28;3274;-60
2023/02/18 10:57:45;;;;;;;;;;;;;;;20.16;50.14;100619.50;4931340;28;2977;-60
2023/02/18 11:00:14;;;;;;;;;;;;;;;20.16;50.01;100610.88;4936475;29;2811;-60
2023/02/18 11:02:40;;;;;;;;;;;;;;;20.15;50.00;100592.13;4931864;29;3103;-60
2023/02/18 11:05:19;;;;;;;;;;;;;;;20.15;50.08;100585.63;4931995;29;2992;-60
2023/02/18 11:07:46;;;;;;;;;;;;;;;20.17;50.00;100574.22;4936472;29;3355;-60
2023/02/18 11:10:17;;;;;;;;;;;;;;;20.17;49.79;100559.84;4935485;29;2962;-60
2023/02/18 11:12:50;;;;;;;;;;;;;;;20.15;50.10;100546.13;4929901;29;2962;-60
2023/02/18 11:15:16;;;;;;;;;;;;;;;20.17;50.12;100551.22;4917606;29;3019;-60
2023/02/18 11:17:53;;;;;;;;;;;;;;;20.19;50.13;100540.56;4934844;29;3187;-60
2023/02/18 11:20:24;;;;;;;;;;;;;;;20.20;50.22;100529.78;4934173;29;3462;-60
2023/02/18 11:22:50;;;;;;;;;;;;;;;20.19;50.02;100534.06;4938195;29;2986;-60
2023/02/18 11:25:19;;;;;;;;;;;;;;;20.21;50.06;100542.78;4933111;29;2915;-60
2023/02/18 11:27:54;;;;;;;;;;;;;;;20.19;50.05;100523.31;4931571;28;2979;-60
2023/02/18 11:30:36;;;;;;;;;;;;;;;20.20;50.21;100515.41;4932567;29;3013;-60
2023/02/18 11:33:05;;;;;;;;;;;;;;;20.19;49.99;100516.81;4932648;28;2992;-60
2023/02/18 11:35:32;;;;;;;;;;;;;;;20.20;49.96;100507.53;4931610;28;3084;-60
2023/02/18 11:37:59;;;;;;;;;;;;;;;20.19;49.95;100508.94;4932188;29;3114;-60
2023/02/18 11:40:32;;;;;;;;;;;;;;;20.20;50.07;100495.28;4936439;28;3112;-60
2023/02/18 11:43:06;;;;;;;;;;;;;;;20.19;50.12;100488.06;4919518;29;3094;-60
2023/02/18 11:45:32;;;;;;;;;;;;;;;20.21;49.98;100479.53;4934654;28;3016;-60
2023/02/18 11:48:00;;;;;;;;;;;;;;;20.21;50.14;100468.03;4938387;29;2735;-60
2023/02/18 11:50:29;;;;;;;;;;;;;;;20.22;50.21;100460.88;4935864;29;3040;-60
2023/02/18 11:52:56;;;;;;;;;;;;;;;20.21;50.18;100450.78;4935166;28;2739;-60
2023/02/18 11:55:23;;;;;;;;;;;;;;;20.21;50.02;100440.00;4934290;29;2787;-60
2023/02/18 11:57:57;;;;;;;;;;;;;;;20.22;49.99;100435.00;4936010;29;2851;-60
2023/02/18 12:00:34;;;;;;;;;;;;;;;20.22;50.08;100426.38;4936801;29;2820;-60
2023/02/18 12:03:00;;;;;;;;;;;;;;;20.21;50.07;100419.16;4936424;28;3111;-60
2023/02/18 12:05:27;;;;;;;;;;;;;;;20.21;50.10;100416.28;4933771;28;2922;-60
2023/02/18 12:07:56;;;;;;;;;;;;;;;20.21;49.97;100399.03;4936446;29;3015;-61
2023/02/18 12:10:37;;;;;;;;;;;;;;;20.21;50.05;100405.50;4937926;29;3045;-60
2023/02/18 12:13:09;;;;;;;;;;;;;;;20.20;50.20;100394.66;4930247;29;2897;-61
2023/02/18 12:15:48;;;;;;;;;;;;;;;20.18;50.21;100394.59;4931153;28;2778;-61
2023/02/18 12:18:24;;;;;;;;;;;;;;;20.21;50.04;100394.03;4926253;29;3294;-60
2023/02/18 12:20:54;;;;;;;;;;;;;;;20.22;50.18;100381.09;4931047;28;3066;-60
2023/02/18 12:23:30;;;;;;;;;;;;;;;20.22;50.17;100372.47;4936169;29;2939;-60
2023/02/18 12:26:03;;;;;;;;;;;;;;;20.22;50.02;100369.59;4934840;29;2855;-60
2023/02/18 12:28:36;;;;;;;;;;;;;;;20.21;50.22;100370.28;4931749;28;2776;-60
2023/02/18 12:31:06;;;;;;;;;;;;;;;20.21;50.42;100371.03;4916451;29;2780;-60
2023/02/18 12:33:51;;;;;;;;;;;;;;;20.20;50.25;100369.56;4938054;28;3028;-60
2023/02/18 12:36:36;;;;;;;;;;;;;;;20.21;50.16;100358.78;4938373;29;2784;-61
2023/02/18 12:39:15;;;;;;;;;;;;;;;20.21;50.24;100358.78;4937392;29;2957;-60
2023/02/18 12:42:00;;;;;;;;;;;;;;;20.19;50.25;100345.06;4934998;29;3159;-60
2023/02/18 12:44:33;;;;;;;;;;;;;;;20.19;50.25;100333.56;4938984;29;3287;-60
2023/02/18 12:47:06;;;;;;;;;;;;;;;20.20;50.04;100337.94;4936892;29;2974;-60
2023/02/18 12:49:45;;;;;;;;;;;;;;;20.20;50.09;100340.03;4938063;28;2876;-60
2023/02/18 12:52:21;;;;;;;;;;;;;;;20.20;50.20;100334.28;4936592;28;3006;-60
2023/02/18 12:55:06;;;;;;;;;;;;;;;20.20;50.20;100334.28;4938441;28;2986;-60
2023/02/18 12:57:38;;;;;;;;;;;;;;;20.22;50.08;100322.88;4930825;28;3284;-60
2023/02/18 13:00:23;;;;;;;;;;;;;;;20.22;50.22;100320.00;4917737;29;2824;-60
2023/02/18 13:02:57;;;;;;;;;;;;;;;20.22;50.21;100320.00;4934403;29;2728;-61
2023/02/18 13:05:31;;;;;;;;;;;;;;;20.24;50.21;100320.09;4933235;28;2681;-62